Terminal Aerodrome Forecast
Issued by NWS Chicago, IL

Home | Current Version | Previous Version | Graphics & Text | Print | Product List | Glossary On
Versions: 1 2 3 4 5 6 7 8 9 10 11 12 13 14 15 16 17 18 19 20 21 22 23 24 25 26 27 28 29 30
624
FTUS43 KLOT 241144
TAFRFD
TAF
KRFD 241144Z 2412/2512 04013G20KT 6SM BR OVC006
     FM241400 05011G17KT 3SM -DZ BR OVC004
     FM242000 33012KT P6SM BKN008 OVC015
     FM250100 31012G18KT P6SM OVC015
     FM250600 30015G24KT 1 1/2SM -SN OVC012=

USA.gov is the U.S. government's official web portal to all federal, state and local government web resources and services.